createdAt,value
2023-05-20T00:00:01.843Z,4.43
2023-05-20T00:02:30.223Z,4.03
2023-05-20T00:04:58.732Z,5.47
2023-05-20T00:07:27.236Z,5.43
2023-05-20T00:09:55.729Z,5.57
2023-05-20T00:12:24.019Z,3.55
2023-05-20T00:14:55.781Z,3.67
2023-05-20T00:17:26.017Z,4.03
2023-05-20T00:19:54.391Z,5.72
2023-05-20T00:22:22.942Z,4.57
2023-05-20T00:24:51.319Z,4.88
2023-05-20T00:27:19.532Z,4.22
2023-05-20T00:29:48.075Z,5.80
2023-05-20T00:32:17.676Z,3.45
2023-05-20T00:34:45.956Z,3.65
2023-05-20T00:37:14.156Z,4.35
2023-05-20T00:39:42.683Z,4.45
2023-05-20T00:42:11.054Z,4.82
2023-05-20T00:44:39.405Z,4.10
2023-05-20T00:47:08.056Z,3.88
2023-05-20T00:49:37.842Z,5.60
2023-05-20T00:52:06.999Z,6.93
2023-05-20T00:54:35.381Z,3.83
2023-05-20T00:57:04.487Z,6.88
2023-05-20T00:59:32.848Z,5.38
2023-05-20T01:02:01.715Z,4.85
2023-05-20T01:04:30.022Z,4.10
2023-05-20T01:07:02.594Z,3.58
2023-05-20T01:09:32.150Z,3.53
2023-05-20T01:12:05.381Z,5.22
2023-05-20T01:14:37.682Z,4.35
2023-05-20T01:17:11.038Z,3.72
2023-05-20T01:19:44.026Z,8.68
2023-05-20T01:22:14.885Z,4.25
2023-05-20T01:24:48.333Z,4.90
2023-05-20T01:27:17.073Z,6.15
2023-05-20T01:29:46.012Z,5.97
2023-05-20T01:32:20.524Z,4.30
2023-05-20T01:34:51.191Z,3.85
2023-05-20T01:37:20.345Z,4.65
2023-05-20T01:39:51.612Z,4.63
2023-05-20T01:42:21.779Z,7.13
2023-05-20T01:44:50.130Z,4.07
2023-05-20T01:47:18.966Z,5.97
2023-05-20T01:49:47.724Z,5.88
2023-05-20T01:52:16.160Z,4.43
2023-05-20T01:54:50.893Z,5.50
2023-05-20T01:57:21.925Z,6.28
2023-05-20T01:59:51.574Z,5.53
2023-05-20T02:02:19.923Z,4.55
2023-05-20T02:04:50.083Z,5.97
2023-05-20T02:07:19.691Z,4.72
2023-05-20T02:09:48.776Z,3.97
2023-05-20T02:12:17.468Z,4.72
2023-05-20T02:14:49.267Z,5.00
2023-05-20T02:17:18.361Z,6.10
2023-05-20T02:19:47.043Z,5.47
2023-05-20T02:22:15.621Z,4.93
2023-05-20T02:24:45.928Z,5.20
2023-05-20T02:27:14.186Z,3.90
2023-05-20T02:29:44.146Z,4.88
2023-05-20T02:32:14.505Z,6.00
2023-05-20T02:34:42.803Z,6.57
2023-05-20T02:37:11.008Z,4.63
2023-05-20T02:39:39.785Z,6.25
2023-05-20T02:42:08.214Z,5.53
2023-05-20T02:44:36.441Z,3.83
2023-05-20T02:47:04.676Z,3.85
2023-05-20T02:49:34.282Z,4.10
2023-05-20T02:52:05.393Z,4.32
2023-05-20T02:54:33.689Z,9.73
2023-05-20T02:57:02.258Z,6.93
2023-05-20T02:59:30.747Z,6.25
2023-05-20T03:01:59.154Z,5.57
2023-05-20T03:04:28.061Z,5.53
2023-05-20T03:06:58.042Z,5.43
2023-05-20T03:09:26.540Z,5.75
2023-05-20T03:11:54.818Z,5.65
2023-05-20T03:14:23.027Z,6.03
2023-05-20T03:16:51.270Z,6.93
2023-05-20T03:19:20.617Z,3.80
2023-05-20T03:21:50.648Z,4.65
2023-05-20T03:24:20.448Z,3.78
2023-05-20T03:26:49.290Z,4.85
2023-05-20T03:29:18.572Z,5.15
2023-05-20T03:31:47.096Z,5.80
2023-05-20T03:34:15.632Z,7.57
2023-05-20T03:36:44.910Z,3.40
2023-05-20T03:39:13.462Z,4.80
2023-05-20T03:41:43.550Z,4.28
2023-05-20T03:44:12.297Z,4.47
2023-05-20T03:46:42.127Z,4.20
2023-05-20T03:49:10.407Z,5.28
2023-05-20T03:51:38.590Z,4.28
2023-05-20T03:54:12.335Z,4.85
2023-05-20T03:56:41.096Z,10.23
2023-05-20T03:59:10.845Z,8.23
2023-05-20T04:01:39.193Z,8.85
2023-05-20T04:04:07.601Z,6.22
2023-05-20T04:06:36.209Z,6.65
2023-05-20T04:09:04.937Z,4.85
2023-05-20T04:11:33.292Z,7.18
2023-05-20T04:14:01.681Z,6.93
2023-05-20T04:16:32.112Z,6.90
2023-05-20T04:19:01.016Z,5.57
2023-05-20T04:21:29.337Z,4.57
2023-05-20T04:23:57.635Z,6.35
2023-05-20T04:26:26.051Z,5.90
2023-05-20T04:28:55.413Z,5.65
2023-05-20T04:31:26.970Z,6.03
2023-05-20T04:33:56.869Z,8.43
2023-05-20T04:36:28.675Z,5.95
2023-05-20T04:38:57.272Z,4.32
2023-05-20T04:41:25.675Z,6.50
2023-05-20T04:43:54.253Z,4.10
2023-05-20T04:46:23.186Z,6.18
2023-05-20T04:48:51.473Z,4.85
2023-05-20T04:51:21.185Z,9.93
2023-05-20T04:53:50.828Z,5.38
2023-05-20T04:56:19.020Z,6.25
2023-05-20T04:58:47.183Z,7.20
2023-05-20T05:01:15.502Z,6.13
2023-05-20T05:03:43.896Z,5.65
2023-05-20T05:06:12.390Z,5.55
2023-05-20T05:08:42.056Z,6.45
2023-05-20T05:11:10.856Z,5.15
2023-05-20T05:13:39.204Z,5.47
2023-05-20T05:16:08.166Z,7.32
2023-05-20T05:18:36.865Z,6.35
2023-05-20T05:21:07.447Z,10.93
2023-05-20T05:23:37.402Z,6.25
2023-05-20T05:26:07.211Z,7.15
2023-05-20T05:28:35.591Z,4.68
2023-05-20T05:31:04.152Z,8.45
2023-05-20T05:33:32.468Z,6.07
2023-05-20T05:36:02.620Z,7.35
2023-05-20T05:38:31.068Z,6.15
2023-05-20T05:40:59.398Z,6.30
2023-05-20T05:43:29.020Z,6.45
2023-05-20T05:45:58.867Z,9.25
2023-05-20T05:48:29.977Z,7.22
2023-05-20T05:50:58.293Z,5.70
2023-05-20T05:53:27.588Z,9.55
2023-05-20T05:55:55.917Z,8.77
2023-05-20T05:58:24.293Z,5.47
2023-05-20T06:00:54.877Z,7.47
2023-05-20T06:03:23.375Z,7.57
2023-05-20T06:05:51.749Z,8.70
2023-05-20T06:08:22.154Z,6.70
2023-05-20T06:10:50.749Z,5.57
2023-05-20T06:13:19.529Z,7.00
2023-05-20T06:15:50.043Z,6.07
2023-05-20T06:18:20.055Z,7.22
2023-05-20T06:20:55.088Z,7.57
2023-05-20T06:23:23.277Z,7.43
2023-05-20T06:26:01.550Z,7.57
2023-05-20T06:28:32.022Z,7.68
2023-05-20T06:31:00.573Z,6.53
2023-05-20T06:33:33.800Z,6.35
2023-05-20T06:36:07.553Z,6.30
2023-05-20T06:38:35.752Z,7.68
2023-05-20T06:41:04.534Z,8.07
2023-05-20T06:43:34.245Z,6.03
2023-05-20T06:46:10.077Z,8.02
2023-05-20T06:48:42.849Z,7.13
2023-05-20T06:51:11.398Z,6.38
2023-05-20T06:53:40.682Z,6.95
2023-05-20T06:56:09.249Z,7.10
2023-05-20T06:58:38.395Z,7.78
2023-05-20T07:01:06.724Z,5.72
2023-05-20T07:03:37.452Z,5.53
2023-05-20T07:06:07.127Z,8.02
2023-05-20T07:08:36.660Z,8.77
2023-05-20T07:11:05.020Z,7.13
2023-05-20T07:13:33.169Z,7.13
2023-05-20T07:16:01.406Z,4.95
2023-05-20T07:18:29.706Z,5.95
2023-05-20T07:20:58.507Z,7.10
2023-05-20T07:23:54.223Z,6.45
2023-05-20T07:26:22.461Z,6.45
2023-05-20T07:28:51.604Z,7.00
2023-05-20T07:31:19.873Z,5.38
2023-05-20T07:33:48.260Z,8.73
2023-05-20T07:36:16.686Z,6.68
2023-05-20T07:39:00.500Z,10.00
2023-05-20T07:41:34.783Z,8.48
2023-05-20T07:44:09.200Z,7.22
2023-05-20T07:46:42.164Z,8.40
2023-05-20T07:49:16.780Z,7.65
2023-05-20T07:51:49.352Z,6.43
2023-05-20T07:54:19.298Z,5.32
2023-05-20T07:57:10.378Z,6.95
2023-05-20T07:59:40.122Z,8.98
2023-05-20T08:02:09.446Z,11.30
2023-05-20T08:04:38.624Z,8.13
2023-05-20T08:07:07.619Z,7.30
2023-05-20T08:09:46.097Z,6.38
2023-05-20T08:12:16.249Z,7.40
2023-05-20T08:14:45.489Z,5.65
2023-05-20T08:17:13.883Z,6.90
2023-05-20T08:19:42.116Z,9.32
2023-05-20T08:22:10.333Z,6.63
2023-05-20T08:24:38.937Z,5.85
2023-05-20T08:27:07.657Z,7.85
2023-05-20T08:29:37.455Z,7.22
2023-05-20T08:32:07.004Z,7.50
2023-05-20T08:34:36.850Z,5.07
2023-05-20T08:37:05.137Z,6.22
2023-05-20T08:39:33.582Z,4.75
2023-05-20T08:42:01.844Z,10.20
2023-05-20T08:44:31.183Z,5.65
2023-05-20T08:47:01.167Z,5.13
2023-05-20T08:49:29.994Z,5.50
2023-05-20T08:51:58.755Z,6.05
2023-05-20T08:54:33.650Z,6.32
2023-05-20T08:57:01.851Z,4.82
2023-05-20T08:59:30.134Z,8.07
2023-05-20T09:01:58.300Z,5.05
2023-05-20T09:04:28.082Z,6.55
2023-05-20T09:06:56.637Z,5.68
2023-05-20T09:09:25.315Z,6.13
2023-05-20T09:11:53.520Z,6.78
2023-05-20T09:14:21.834Z,6.45
2023-05-20T09:16:51.928Z,6.38
2023-05-20T09:19:24.554Z,4.53
2023-05-20T09:21:55.320Z,4.65
2023-05-20T09:24:27.474Z,4.75
2023-05-20T09:26:56.370Z,4.20
2023-05-20T09:29:24.627Z,5.18
2023-05-20T09:31:53.323Z,8.40
2023-05-20T09:34:21.966Z,6.80
2023-05-20T09:36:51.981Z,7.88
2023-05-20T09:39:26.953Z,7.03
2023-05-20T09:42:03.938Z,7.72
2023-05-20T09:44:33.398Z,8.80
2023-05-20T09:47:03.555Z,7.45
2023-05-20T09:49:33.237Z,5.80
2023-05-20T09:52:03.484Z,6.07
2023-05-20T09:54:33.457Z,7.53
2023-05-20T09:57:01.864Z,6.88
2023-05-20T09:59:32.687Z,6.57
2023-05-20T10:02:01.778Z,7.40
2023-05-20T10:04:32.102Z,5.70
2023-05-20T10:07:42.182Z,6.85
2023-05-20T10:10:24.622Z,12.15
2023-05-20T10:13:06.259Z,6.93
2023-05-20T10:15:43.787Z,7.82
2023-05-20T10:18:24.262Z,7.47
2023-05-20T10:20:52.844Z,6.32
2023-05-20T10:23:25.028Z,8.80
2023-05-20T10:25:56.066Z,6.07
2023-05-20T10:28:31.652Z,7.18
2023-05-20T10:31:00.562Z,6.13
2023-05-20T10:33:29.826Z,7.78
2023-05-20T10:36:00.648Z,8.90
2023-05-20T10:38:29.030Z,9.30
2023-05-20T10:41:11.425Z,9.30
2023-05-20T10:43:39.834Z,8.63
2023-05-20T10:46:17.122Z,7.10
2023-05-20T10:48:50.760Z,8.80
2023-05-20T10:51:19.413Z,10.10
2023-05-20T10:53:48.118Z,8.98
2023-05-20T10:56:22.915Z,8.23
2023-05-20T10:58:51.831Z,8.02
2023-05-20T11:01:20.699Z,8.10
2023-05-20T11:03:51.391Z,8.80
2023-05-20T11:06:20.270Z,8.30
2023-05-20T11:08:48.661Z,6.70
2023-05-20T11:11:16.840Z,10.45
2023-05-20T11:13:51.352Z,6.25
2023-05-20T11:16:22.179Z,7.40
2023-05-20T11:18:51.598Z,9.45
2023-05-20T11:21:20.709Z,8.02
2023-05-20T11:23:49.294Z,9.60
2023-05-20T11:26:19.153Z,7.65
2023-05-20T11:28:48.763Z,7.03
2023-05-20T11:31:17.644Z,7.53
2023-05-20T11:33:46.100Z,10.85
2023-05-20T11:36:27.080Z,7.57
2023-05-20T11:38:56.479Z,7.38
2023-05-20T11:41:28.144Z,9.02
2023-05-20T11:44:03.315Z,8.85
2023-05-20T11:46:31.596Z,8.10
2023-05-20T11:48:59.870Z,6.90
2023-05-20T11:51:31.253Z,7.93
2023-05-20T11:54:03.823Z,12.98
2023-05-20T11:56:36.512Z,9.50
2023-05-20T11:59:14.778Z,8.77
2023-05-20T12:01:45.858Z,15.43
2023-05-20T12:04:14.972Z,10.15
2023-05-20T12:06:44.099Z,8.35
2023-05-20T12:09:14.329Z,10.18
2023-05-20T12:11:44.585Z,7.90
2023-05-20T12:14:15.643Z,9.60
2023-05-20T12:16:46.691Z,9.07
2023-05-20T12:19:14.906Z,9.40
2023-05-20T12:21:47.770Z,10.57
2023-05-20T12:24:16.362Z,7.28
2023-05-20T12:26:44.828Z,9.15
2023-05-20T12:29:13.401Z,9.52
2023-05-20T12:31:43.307Z,8.25
2023-05-20T12:34:11.763Z,8.75
2023-05-20T12:36:39.978Z,10.25
2023-05-20T12:39:09.419Z,8.10
2023-05-20T12:41:37.766Z,10.15
2023-05-20T12:44:07.120Z,9.73
2023-05-20T12:46:35.909Z,12.10
2023-05-20T12:49:06.353Z,9.82
2023-05-20T12:51:39.459Z,10.00
2023-05-20T12:54:09.620Z,8.27
2023-05-20T12:56:40.776Z,8.13
2023-05-20T12:59:09.314Z,13.23
2023-05-20T13:01:38.736Z,10.40
2023-05-20T13:04:08.707Z,8.10
2023-05-20T13:06:37.868Z,8.85
2023-05-20T13:09:06.240Z,11.63
2023-05-20T13:11:35.462Z,9.32
2023-05-20T13:14:11.781Z,9.68
2023-05-20T13:16:42.686Z,10.25
2023-05-20T13:19:14.375Z,8.20
2023-05-20T13:21:42.915Z,7.82
2023-05-20T13:24:11.181Z,8.60
2023-05-20T13:26:40.034Z,8.25
2023-05-20T13:29:08.691Z,8.52
2023-05-20T13:31:38.380Z,8.40
2023-05-20T13:34:06.980Z,7.85
2023-05-20T13:36:36.722Z,9.38
2023-05-20T13:39:05.156Z,6.88
2023-05-20T13:41:33.721Z,9.70
2023-05-20T13:44:01.904Z,7.75
2023-05-20T13:46:30.222Z,8.10
2023-05-20T13:49:01.161Z,7.90
2023-05-20T13:51:29.580Z,10.10
2023-05-20T13:53:59.229Z,7.10
2023-05-20T13:56:28.339Z,10.68
2023-05-20T13:58:57.325Z,10.65
2023-05-20T14:01:33.031Z,7.75
2023-05-20T14:04:01.592Z,9.13
2023-05-20T14:06:32.013Z,7.90
2023-05-20T14:09:01.604Z,7.10
2023-05-20T14:11:29.836Z,14.98
2023-05-20T14:13:58.121Z,10.05
2023-05-20T14:16:29.064Z,8.50
2023-05-20T14:18:57.575Z,6.35
2023-05-20T14:21:26.145Z,7.13
2023-05-20T14:23:54.360Z,7.00
2023-05-20T14:26:24.091Z,8.82
2023-05-20T14:28:52.635Z,8.00
2023-05-20T14:31:21.058Z,7.90
2023-05-20T14:33:49.419Z,9.35
2023-05-20T14:36:18.091Z,7.80
2023-05-20T14:38:47.634Z,7.20
2023-05-20T14:41:17.929Z,10.05
2023-05-20T14:43:47.500Z,7.88
2023-05-20T14:46:15.822Z,6.63
2023-05-20T14:48:44.353Z,6.82
2023-05-20T14:51:13.069Z,8.45
2023-05-20T14:53:42.825Z,7.75
2023-05-20T14:56:16.596Z,9.10
2023-05-20T14:58:44.930Z,7.35
2023-05-20T15:01:14.551Z,10.85
2023-05-20T15:03:42.879Z,7.45
2023-05-20T15:06:15.765Z,9.07
2023-05-20T15:08:44.114Z,7.22
2023-05-20T15:11:12.462Z,7.85
2023-05-20T15:13:40.686Z,6.78
2023-05-20T15:16:12.347Z,6.15
2023-05-20T15:18:42.095Z,5.88
2023-05-20T15:21:10.378Z,8.45
2023-05-20T15:23:44.487Z,8.38
2023-05-20T15:26:14.144Z,10.20
2023-05-20T15:28:42.862Z,8.73
2023-05-20T15:31:11.221Z,6.88
2023-05-20T15:33:41.146Z,8.77
2023-05-20T15:36:09.670Z,5.82
2023-05-20T15:38:38.034Z,7.38
2023-05-20T15:41:07.458Z,6.75
2023-05-20T15:43:37.926Z,6.15
2023-05-20T15:46:06.999Z,5.95
2023-05-20T15:48:40.022Z,7.05
2023-05-20T15:51:09.790Z,10.27
2023-05-20T15:53:40.059Z,10.50
2023-05-20T15:56:10.360Z,7.88
2023-05-20T15:58:42.105Z,7.30
2023-05-20T16:01:13.189Z,8.35
2023-05-20T16:03:41.547Z,7.85
2023-05-20T16:06:12.627Z,7.10
2023-05-20T16:08:41.657Z,7.90
2023-05-20T16:11:11.913Z,8.93
2023-05-20T16:13:40.086Z,9.38
2023-05-20T16:16:08.721Z,6.93
2023-05-20T16:18:37.100Z,6.97
2023-05-20T16:21:07.840Z,8.15
2023-05-20T16:23:37.625Z,10.65
2023-05-20T16:26:06.006Z,8.38
2023-05-20T16:28:34.520Z,6.70
2023-05-20T16:31:04.354Z,8.98
2023-05-20T16:33:37.756Z,5.70
2023-05-20T16:36:12.103Z,6.97
2023-05-20T16:38:45.446Z,7.88
2023-05-20T16:41:15.937Z,8.90
2023-05-20T16:43:47.201Z,12.23
2023-05-20T16:46:15.498Z,6.63
2023-05-20T16:48:44.140Z,8.32
2023-05-20T16:51:12.481Z,7.15
2023-05-20T16:53:40.785Z,11.48
2023-05-20T16:56:10.586Z,5.00
2023-05-20T16:58:38.754Z,6.15
2023-05-20T17:01:08.687Z,6.38
2023-05-20T17:03:37.025Z,7.95
2023-05-20T17:06:05.678Z,7.72
2023-05-20T17:08:34.027Z,8.68
2023-05-20T17:11:03.005Z,6.68
2023-05-20T17:13:33.229Z,7.32
2023-05-20T17:16:01.772Z,6.95
2023-05-20T17:18:30.132Z,6.82
2023-05-20T17:20:58.450Z,10.18
2023-05-20T17:23:26.947Z,6.88
2023-05-20T17:25:55.381Z,10.77
2023-05-20T17:28:23.660Z,6.47
2023-05-20T17:30:53.891Z,7.32
2023-05-20T17:33:23.159Z,6.57
2023-05-20T17:35:51.739Z,5.55
2023-05-20T17:38:26.197Z,5.82
2023-05-20T17:40:55.015Z,8.65
2023-05-20T17:43:25.157Z,5.53
2023-05-20T17:45:54.835Z,7.50
2023-05-20T17:48:23.244Z,8.35
2023-05-20T17:50:51.549Z,7.32
2023-05-20T17:53:22.011Z,7.40
2023-05-20T17:55:50.785Z,8.00
2023-05-20T17:58:22.179Z,5.82
2023-05-20T18:00:50.913Z,7.03
2023-05-20T18:03:20.799Z,5.78
2023-05-20T18:05:49.155Z,8.30
2023-05-20T18:08:19.021Z,8.55
2023-05-20T18:10:47.265Z,6.97
2023-05-20T18:13:15.560Z,5.93
2023-05-20T18:15:43.854Z,10.20
2023-05-20T18:18:12.343Z,7.00
2023-05-20T18:20:42.093Z,7.50
2023-05-20T18:23:10.469Z,5.97
2023-05-20T18:25:39.919Z,7.10
2023-05-20T18:28:11.154Z,7.32
2023-05-20T18:30:39.451Z,7.15
2023-05-20T18:33:07.755Z,11.77
2023-05-20T18:35:36.211Z,6.07
2023-05-20T18:38:05.864Z,7.88
2023-05-20T18:40:34.336Z,7.57
2023-05-20T18:43:02.967Z,6.63
2023-05-20T18:45:31.342Z,6.18
2023-05-20T18:48:00.909Z,7.28
2023-05-20T18:50:29.208Z,6.93
2023-05-20T18:52:57.789Z,8.43
2023-05-20T18:55:27.507Z,6.40
2023-05-20T18:57:59.947Z,8.93
2023-05-20T19:00:28.254Z,6.00
2023-05-20T19:02:58.137Z,8.98
2023-05-20T19:05:26.579Z,7.65
2023-05-20T19:07:54.918Z,7.80
2023-05-20T19:10:23.320Z,12.20
2023-05-20T19:12:53.332Z,6.22
2023-05-20T19:15:21.557Z,11.55
2023-05-20T19:17:49.849Z,6.68
2023-05-20T19:20:18.140Z,7.68
2023-05-20T19:22:46.381Z,7.53
2023-05-20T19:25:15.004Z,9.13
2023-05-20T19:27:43.170Z,6.85
2023-05-20T19:30:13.799Z,10.30
2023-05-20T19:32:42.063Z,8.05
2023-05-20T19:35:10.870Z,8.20
2023-05-20T19:37:39.063Z,8.10
2023-05-20T19:40:08.379Z,7.13
2023-05-20T19:42:37.037Z,8.43
2023-05-20T19:45:06.772Z,7.25
2023-05-20T19:47:37.208Z,9.15
2023-05-20T19:50:06.102Z,6.47
2023-05-20T19:52:34.319Z,7.97
2023-05-20T19:55:02.620Z,10.48
2023-05-20T19:57:31.498Z,6.68
2023-05-20T19:59:59.718Z,10.52
2023-05-20T20:02:28.154Z,8.40
2023-05-20T20:04:59.161Z,7.38
2023-05-20T20:07:28.737Z,7.10
2023-05-20T20:09:57.107Z,8.25
2023-05-20T20:12:25.373Z,7.60
2023-05-20T20:14:53.745Z,7.65
2023-05-20T20:17:23.255Z,9.50
2023-05-20T20:19:54.135Z,8.07
2023-05-20T20:22:23.666Z,8.38
2023-05-20T20:24:51.954Z,10.18
2023-05-20T20:27:20.550Z,9.38
2023-05-20T20:29:48.740Z,8.40
2023-05-20T20:32:17.088Z,7.22
2023-05-20T20:34:45.825Z,8.60
2023-05-20T20:37:15.512Z,9.32
2023-05-20T20:39:46.812Z,9.10
2023-05-20T20:42:15.170Z,11.00
2023-05-20T20:44:48.386Z,10.13
2023-05-20T20:47:16.983Z,7.90
2023-05-20T20:49:45.359Z,8.40
2023-05-20T20:52:13.645Z,8.43
2023-05-20T20:54:43.278Z,9.88
2023-05-20T20:57:13.963Z,9.77
2023-05-20T20:59:47.662Z,13.13
2023-05-20T21:02:16.269Z,9.55
2023-05-20T21:04:44.670Z,7.18
2023-05-20T21:07:17.891Z,7.88
2023-05-20T21:09:46.432Z,7.47
2023-05-20T21:12:16.131Z,11.20
2023-05-20T21:14:44.510Z,10.55
2023-05-20T21:17:12.745Z,10.75
2023-05-20T21:19:40.955Z,10.77
2023-05-20T21:22:09.518Z,10.00
2023-05-20T21:24:37.798Z,9.95
2023-05-20T21:27:06.391Z,13.70
2023-05-20T21:29:37.423Z,15.60
2023-05-20T21:32:07.743Z,10.07
2023-05-20T21:34:35.993Z,7.95
2023-05-20T21:37:04.165Z,10.20
2023-05-20T21:39:32.416Z,12.18
2023-05-20T21:42:00.714Z,8.50
2023-05-20T21:44:28.888Z,11.80
2023-05-20T21:46:58.525Z,9.07
2023-05-20T21:49:26.733Z,9.30
2023-05-20T21:51:54.947Z,9.23
2023-05-20T21:54:23.090Z,9.15
2023-05-20T21:56:51.757Z,8.50
2023-05-20T21:59:20.029Z,8.27
2023-05-20T22:01:50.455Z,10.65
2023-05-20T22:04:20.099Z,8.52
2023-05-20T22:06:50.640Z,8.85
2023-05-20T22:09:18.941Z,9.30
2023-05-20T22:11:48.000Z,9.55
2023-05-20T22:14:16.698Z,10.82
2023-05-20T22:16:46.806Z,11.48
2023-05-20T22:19:15.162Z,9.75
2023-05-20T22:24:16.562Z,8.60
2023-05-20T22:26:44.834Z,9.45
2023-05-20T22:29:13.779Z,9.13
2023-05-20T22:31:42.065Z,11.32
2023-05-20T22:34:10.228Z,8.85
2023-05-20T22:36:39.420Z,10.25
2023-05-20T22:39:09.059Z,9.82
2023-05-20T22:41:37.243Z,9.65
2023-05-20T22:44:05.772Z,9.32
2023-05-20T22:46:34.147Z,9.10
2023-05-20T22:49:02.406Z,14.57
2023-05-20T22:51:31.242Z,13.63
2023-05-20T22:53:59.579Z,9.35
2023-05-20T22:56:29.660Z,9.25
2023-05-20T22:58:57.879Z,8.90
2023-05-20T23:01:26.123Z,14.32
2023-05-20T23:03:54.451Z,14.10
2023-05-20T23:06:23.177Z,10.25
2023-05-20T23:08:51.973Z,10.73
2023-05-20T23:11:20.906Z,10.18
2023-05-20T23:13:50.805Z,11.63
2023-05-20T23:16:19.370Z,11.35
2023-05-20T23:18:47.698Z,12.18
2023-05-20T23:21:15.906Z,12.45
2023-05-20T23:23:44.041Z,13.27
2023-05-20T23:26:12.391Z,11.98
2023-05-20T23:28:40.921Z,11.88
2023-05-20T23:31:12.162Z,11.38
2023-05-20T23:33:40.412Z,10.88
2023-05-20T23:36:09.956Z,10.98
2023-05-20T23:38:38.592Z,13.88
2023-05-20T23:41:07.190Z,11.75
2023-05-20T23:43:35.396Z,10.68
2023-05-20T23:46:03.683Z,13.57
2023-05-20T23:48:33.382Z,14.38
2023-05-20T23:51:01.646Z,12.77
2023-05-20T23:53:30.046Z,11.82
2023-05-20T23:55:58.210Z,15.00
2023-05-20T23:58:26.507Z,13.40
